Time;durP1;ratioP1;P1;durP2;ratioP2;P2;SDS_P1;SDS_P2;PMS_P1;PMS_P2;Temp;Humidity;BMP_temperature;BMP_pressure;BME280_temperature;BME280_humidity;BME280_pressure;Samples;Min_cycle;Max_cycle;Signal;HPM_P1;HPM_P2
2021/10/27 00:02:00;;;;;;;32.35;23.38;;;14.90;80.20;;;;;;4958730;28;92681;-90
2021/10/27 00:04:27;;;;;;;30.63;22.42;;;14.90;80.10;;;;;;4958674;28;92357;-90
2021/10/27 00:06:54;;;;;;;37.30;22.77;;;15.00;80.20;;;;;;4941418;28;92558;-90
2021/10/27 00:09:21;;;;;;;31.08;22.92;;;15.00;80.10;;;;;;4940876;28;94776;-90
2021/10/27 00:11:48;;;;;;;32.80;22.75;;;15.00;80.10;;;;;;4917519;28;93628;-90
2021/10/27 00:14:15;;;;;;;30.35;22.50;;;15.00;80.10;;;;;;4905535;28;92522;-90
2021/10/27 00:16:42;;;;;;;31.20;22.85;;;15.00;80.10;;;;;;4905604;28;93525;-91
2021/10/27 00:19:09;;;;;;;30.75;23.02;;;15.00;80.10;;;;;;4925481;28;113152;-91
2021/10/27 00:21:38;;;;;;;32.45;24.02;;;15.00;80.10;;;;;;4922066;28;95579;-90
2021/10/27 00:24:05;;;;;;;30.20;23.73;;;15.00;80.20;;;;;;4939703;28;92362;-90
2021/10/27 00:26:32;;;;;;;29.75;22.42;;;14.90;80.30;;;;;;4894708;28;92845;-90
2021/10/27 00:29:00;;;;;;;32.28;23.15;;;14.90;80.30;;;;;;4957234;28;96266;-90
2021/10/27 00:31:26;;;;;;;32.55;24.60;;;14.90;80.30;;;;;;4940652;28;95766;-90
2021/10/27 00:33:54;;;;;;;28.23;22.67;;;15.00;80.40;;;;;;4940651;28;92439;-90
2021/10/27 00:36:21;;;;;;;29.48;22.13;;;14.90;80.40;;;;;;4925287;28;91717;-90
2021/10/27 00:38:47;;;;;;;29.58;22.88;;;15.00;80.40;;;;;;4924745;28;93201;-90
2021/10/27 00:41:15;;;;;;;33.05;23.10;;;14.90;80.50;;;;;;4941125;28;93139;-90
2021/10/27 00:43:42;;;;;;;30.05;22.90;;;15.00;80.50;;;;;;4939276;28;94987;-90
2021/10/27 00:46:20;;;;;;;32.83;22.48;;;15.00;80.50;;;;;;4940400;28;92499;-90
2021/10/27 00:48:49;;;;;;;29.08;21.33;;;15.00;80.40;;;;;;4940980;28;93271;-90
2021/10/27 00:51:16;;;;;;;32.08;22.95;;;14.90;80.60;;;;;;4957373;28;93276;-90
2021/10/27 00:53:45;;;;;;;32.50;24.02;;;15.00;80.60;;;;;;4940172;28;92940;-90
2021/10/27 00:56:13;;;;;;;32.88;24.13;;;15.00;80.50;;;;;;4956689;28;92609;-90
2021/10/27 00:58:40;;;;;;;31.70;22.50;;;14.90;80.50;;;;;;4972721;28;95730;-89
2021/10/27 01:01:08;;;;;;;31.80;23.35;;;14.90;80.70;;;;;;4924964;28;94096;-90
2021/10/27 01:03:35;;;;;;;30.52;23.20;;;14.90;80.70;;;;;;4940509;28;92487;-90
2021/10/27 01:06:04;;;;;;;27.60;22.67;;;14.90;80.60;;;;;;4925098;28;92507;-90
2021/10/27 01:08:34;;;;;;;33.67;23.23;;;14.90;80.70;;;;;;4939340;28;96117;-90
2021/10/27 01:11:03;;;;;;;31.50;22.52;;;14.90;80.70;;;;;;4956494;28;98548;-90
2021/10/27 01:13:30;;;;;;;37.55;23.90;;;14.90;80.70;;;;;;4940202;28;92839;-90
2021/10/27 01:15:58;;;;;;;36.05;24.15;;;14.90;80.70;;;;;;4940290;28;92488;-90
2021/10/27 01:18:25;;;;;;;33.95;24.40;;;14.80;80.70;;;;;;4940459;28;95961;-90
2021/10/27 01:20:52;;;;;;;35.70;24.15;;;14.80;80.70;;;;;;4956500;28;93047;-90
2021/10/27 01:23:19;;;;;;;35.53;26.45;;;14.70;80.80;;;;;;4924115;28;92370;-90
2021/10/27 01:25:46;;;;;;;35.97;24.63;;;14.70;80.90;;;;;;4924429;28;91826;-90
2021/10/27 01:28:13;;;;;;;33.78;23.20;;;14.70;81.10;;;;;;4940082;28;95395;-90
2021/10/27 01:30:40;;;;;;;35.47;25.38;;;14.70;81.30;;;;;;4940052;28;92537;-90
2021/10/27 01:33:07;;;;;;;34.95;25.15;;;14.60;81.40;;;;;;4923206;28;94673;-89
2021/10/27 01:35:34;;;;;;;30.55;25.35;;;14.50;81.50;;;;;;4939705;28;92478;-90
2021/10/27 01:38:01;;;;;;;35.05;24.50;;;14.50;81.70;;;;;;4939917;28;93308;-89
2021/10/27 01:40:28;;;;;;;41.58;25.23;;;14.50;81.80;;;;;;4939594;28;95760;-90
2021/10/27 01:42:56;;;;;;;35.63;23.67;;;14.50;81.80;;;;;;4940048;28;92408;-90
2021/10/27 01:45:28;;;;;;;33.15;23.88;;;14.50;81.90;;;;;;4939180;28;100509;-90
2021/10/27 01:47:55;;;;;;;34.63;23.98;;;14.50;82.40;;;;;;4956195;28;96248;-89
2021/10/27 01:50:23;;;;;;;38.90;24.70;;;14.50;81.80;;;;;;4924164;28;96043;-90
2021/10/27 01:52:50;;;;;;;33.53;22.80;;;14.60;81.80;;;;;;4924149;28;92434;-90
2021/10/27 01:55:17;;;;;;;35.55;24.38;;;14.60;81.90;;;;;;4907236;28;92507;-90
2021/10/27 01:57:44;;;;;;;33.70;24.10;;;14.60;81.60;;;;;;4922055;28;98162;-90
2021/10/27 02:00:12;;;;;;;34.22;25.70;;;14.70;81.70;;;;;;4923267;28;98226;-90
2021/10/27 02:02:41;;;;;;;30.90;22.73;;;14.70;81.70;;;;;;4923307;28;92406;-90
2021/10/27 02:05:09;;;;;;;35.70;23.92;;;14.70;81.60;;;;;;4923892;28;92531;-90
2021/10/27 02:07:36;;;;;;;30.60;21.65;;;14.70;81.70;;;;;;4923241;28;95958;-90
2021/10/27 02:10:07;;;;;;;36.78;23.58;;;14.70;81.60;;;;;;4939415;28;95902;-90
2021/10/27 02:12:35;;;;;;;30.75;22.77;;;14.80;81.70;;;;;;4940414;28;92644;-90
2021/10/27 02:15:03;;;;;;;38.75;24.90;;;14.80;81.60;;;;;;4939946;28;91929;-90
2021/10/27 02:17:30;;;;;;;34.95;24.23;;;14.80;81.60;;;;;;4938783;28;96140;-90
2021/10/27 02:19:58;;;;;;;36.15;25.35;;;14.90;81.70;;;;;;4923509;28;92973;-90
2021/10/27 02:22:25;;;;;;;31.48;23.60;;;14.80;81.60;;;;;;4938639;28;94773;-90
2021/10/27 02:24:53;;;;;;;32.42;25.17;;;14.90;81.50;;;;;;4923484;28;92348;-90
2021/10/27 02:27:19;;;;;;;33.47;23.75;;;14.90;81.50;;;;;;4923015;28;106278;-90
2021/10/27 02:29:46;;;;;;;32.17;23.77;;;14.90;81.50;;;;;;4938850;28;96128;-90
2021/10/27 02:32:13;;;;;;;31.80;23.50;;;14.90;81.40;;;;;;4939519;28;92449;-90
2021/10/27 02:34:40;;;;;;;30.45;22.73;;;14.90;81.50;;;;;;4923909;28;92782;-90
2021/10/27 02:37:08;;;;;;;37.20;23.83;;;15.00;81.50;;;;;;4922644;28;96082;-90
2021/10/27 02:39:36;;;;;;;38.42;24.55;;;15.00;81.50;;;;;;4923576;28;92937;-90
2021/10/27 02:42:03;;;;;;;40.28;27.40;;;15.00;81.60;;;;;;4923319;28;92599;-90
2021/10/27 02:44:30;;;;;;;38.40;25.33;;;15.00;81.60;;;;;;4922979;28;92506;-90
2021/10/27 02:46:57;;;;;;;36.65;26.05;;;15.00;81.60;;;;;;4921506;28;97900;-90
2021/10/27 02:49:24;;;;;;;39.05;26.92;;;15.00;81.70;;;;;;4922611;28;98043;-90
2021/10/27 02:52:28;;;;;;;42.47;26.95;;;15.00;81.80;;;;;;4942227;28;92675;-90
2021/10/27 02:54:56;;;;;;;38.88;24.05;;;15.00;81.70;;;;;;4937613;28;92371;-90
2021/10/27 02:57:23;;;;;;;32.55;24.67;;;15.00;82.00;;;;;;4939402;28;93330;-90
2021/10/27 02:59:50;;;;;;;35.70;23.75;;;15.00;81.90;;;;;;4940187;28;93149;-90
2021/10/27 03:02:17;;;;;;;40.70;25.02;;;15.00;81.70;;;;;;4939364;28;92525;-90
2021/10/27 03:04:44;;;;;;;37.97;24.30;;;15.10;81.70;;;;;;4939817;28;91473;-90
2021/10/27 03:07:11;;;;;;;38.50;25.02;;;15.10;81.70;;;;;;4939127;28;92520;-90
2021/10/27 03:09:38;;;;;;;35.00;23.30;;;15.10;81.60;;;;;;4940334;28;93427;-89
2021/10/27 03:12:06;;;;;;;31.08;21.40;;;15.10;81.70;;;;;;4922278;28;95086;-90
2021/10/27 03:14:33;;;;;;;34.05;22.83;;;15.10;81.60;;;;;;4922566;28;100787;-90
2021/10/27 03:17:00;;;;;;;34.17;21.70;;;15.10;81.60;;;;;;4939054;28;95712;-90
2021/10/27 03:19:27;;;;;;;32.30;22.80;;;15.10;81.60;;;;;;4922776;28;94916;-90
2021/10/27 03:21:54;;;;;;;29.27;20.02;;;15.20;81.50;;;;;;4922774;28;92461;-90
2021/10/27 03:24:21;;;;;;;32.78;20.48;;;15.10;81.40;;;;;;4940363;28;92447;-90
2021/10/27 03:26:48;;;;;;;25.90;18.90;;;15.20;81.50;;;;;;4922382;28;96234;-90
2021/10/27 03:29:15;;;;;;;29.13;18.13;;;15.20;82.10;;;;;;4939369;28;93181;-90
2021/10/27 03:31:42;;;;;;;26.42;17.88;;;15.20;81.40;;;;;;4939760;28;92460;-90
2021/10/27 03:34:09;;;;;;;28.52;17.80;;;15.20;81.30;;;;;;4925829;28;92488;-90
2021/10/27 03:36:36;;;;;;;24.30;17.02;;;15.20;81.30;;;;;;4924548;28;97967;-90
2021/10/27 03:39:03;;;;;;;23.40;15.57;;;15.20;81.40;;;;;;4942077;28;95925;-90
2021/10/27 03:41:30;;;;;;;22.17;15.00;;;15.20;81.40;;;;;;4941748;28;92340;-90
2021/10/27 03:43:57;;;;;;;19.58;13.10;;;15.20;81.40;;;;;;4959387;28;92342;-91
2021/10/27 03:46:24;;;;;;;26.52;14.15;;;15.20;81.20;;;;;;4941584;28;106171;-90
2021/10/27 03:48:52;;;;;;;20.23;12.38;;;15.20;81.20;;;;;;4942157;28;93480;-90
2021/10/27 03:51:20;;;;;;;23.73;12.00;;;15.30;81.10;;;;;;4942686;28;92408;-90
2021/10/27 03:53:47;;;;;;;18.55;11.77;;;15.30;80.80;;;;;;4959384;28;91734;-90
2021/10/27 03:56:14;;;;;;;20.60;11.30;;;15.30;80.70;;;;;;4957479;28;94261;-90
2021/10/27 03:58:41;;;;;;;18.08;10.23;;;15.40;80.70;;;;;;4925257;28;95917;-89
2021/10/27 04:01:47;;;;;;;19.23;11.05;;;15.40;80.70;;;;;;4940418;28;94642;-90
2021/10/27 04:04:14;;;;;;;22.08;11.13;;;15.40;80.40;;;;;;4941329;28;92531;-90
2021/10/27 04:07:19;;;;;;;20.27;10.23;;;15.40;80.70;;;;;;4924482;28;93389;-90
2021/10/27 04:09:46;;;;;;;19.23;9.85;;;15.40;80.40;;;;;;4959348;28;94706;-90
2021/10/27 04:12:13;;;;;;;17.80;9.65;;;15.40;80.60;;;;;;4925474;28;92784;-90
2021/10/27 04:14:41;;;;;;;21.33;9.68;;;15.40;80.50;;;;;;4925612;28;92480;-90
2021/10/27 04:17:08;;;;;;;15.23;8.45;;;15.40;80.40;;;;;;4959082;28;95665;-90
2021/10/27 04:19:35;;;;;;;15.30;9.15;;;15.50;80.40;;;;;;4925417;28;96259;-89
2021/10/27 04:22:02;;;;;;;19.38;9.10;;;15.40;80.10;;;;;;4959626;28;92315;-90
2021/10/27 04:24:29;;;;;;;15.50;8.98;;;15.40;80.20;;;;;;4941311;28;98322;-89
2021/10/27 04:26:56;;;;;;;16.65;9.02;;;15.50;80.10;;;;;;4923793;28;98644;-90
2021/10/27 04:29:23;;;;;;;16.85;8.25;;;15.50;80.10;;;;;;4957763;28;98481;-90
2021/10/27 04:31:50;;;;;;;19.05;7.90;;;15.50;80.00;;;;;;4924909;28;92450;-90
2021/10/27 04:34:17;;;;;;;18.33;8.23;;;15.50;80.00;;;;;;4925058;28;92772;-90
2021/10/27 04:36:44;;;;;;;15.25;7.93;;;15.50;80.00;;;;;;4957451;28;93737;-90
2021/10/27 04:39:11;;;;;;;17.65;7.95;;;15.50;80.00;;;;;;4940608;28;97758;-90
2021/10/27 04:41:38;;;;;;;16.80;7.82;;;15.50;80.00;;;;;;4941454;28;92416;-90
2021/10/27 04:44:05;;;;;;;15.82;8.23;;;15.50;80.00;;;;;;4941360;28;91785;-90
2021/10/27 04:46:32;;;;;;;21.52;8.90;;;15.50;79.90;;;;;;4972920;28;112658;-90
2021/10/27 04:48:59;;;;;;;13.68;7.72;;;15.50;79.90;;;;;;4953834;28;95420;-90
2021/10/27 04:51:26;;;;;;;15.40;8.45;;;15.60;79.90;;;;;;4919841;28;94916;-90
2021/10/27 04:53:53;;;;;;;14.35;8.85;;;15.60;80.00;;;;;;4937391;28;92557;-90
2021/10/27 04:56:21;;;;;;;15.75;9.32;;;15.60;80.10;;;;;;4938370;28;93270;-90
2021/10/27 04:58:48;;;;;;;21.83;10.02;;;15.60;80.20;;;;;;4947000;28;95659;-90
2021/10/27 05:01:15;;;;;;;18.10;10.07;;;15.60;80.20;;;;;;4957499;28;92566;-89
2021/10/27 05:03:43;;;;;;;18.80;10.00;;;15.60;80.90;;;;;;4925219;28;92527;-90
2021/10/27 05:06:10;;;;;;;17.67;8.95;;;15.60;80.30;;;;;;4924562;28;95908;-90
2021/10/27 05:08:37;;;;;;;17.92;8.90;;;15.60;80.40;;;;;;4941377;28;95111;-90
2021/10/27 05:11:05;;;;;;;16.40;8.70;;;15.60;80.30;;;;;;4925093;28;97431;-90
2021/10/27 05:13:32;;;;;;;16.40;8.95;;;15.60;80.30;;;;;;4924709;28;92473;-90
2021/10/27 05:15:59;;;;;;;22.02;9.55;;;15.60;80.30;;;;;;4907307;28;98484;-90
2021/10/27 05:18:26;;;;;;;17.45;8.88;;;15.60;80.50;;;;;;4940539;28;98029;-90
2021/10/27 05:20:53;;;;;;;16.60;9.63;;;15.60;80.70;;;;;;4940756;28;92172;-90
2021/10/27 05:23:20;;;;;;;23.15;10.38;;;15.60;81.10;;;;;;4940207;28;92538;-90
2021/10/27 05:25:48;;;;;;;18.98;10.68;;;15.60;81.20;;;;;;4931188;28;106256;-90
2021/10/27 05:28:15;;;;;;;17.05;10.13;;;15.60;81.50;;;;;;4957678;28;93525;-90
2021/10/27 05:30:42;;;;;;;17.80;9.82;;;15.60;81.80;;;;;;4923975;28;93954;-89
2021/10/27 05:33:09;;;;;;;20.38;10.85;;;15.50;81.90;;;;;;4925390;28;91764;-90
2021/10/27 05:35:36;;;;;;;20.00;11.10;;;15.50;81.80;;;;;;4940303;28;93732;-90
2021/10/27 05:38:03;;;;;;;19.15;9.52;;;15.50;81.90;;;;;;4924279;28;95476;-89
2021/10/27 05:40:30;;;;;;;16.60;10.23;;;15.50;81.80;;;;;;4923754;28;94919;-90
2021/10/27 05:42:58;;;;;;;16.25;9.50;;;15.50;81.90;;;;;;4924514;28;92435;-89
2021/10/27 05:45:27;;;;;;;19.25;9.98;;;15.50;82.00;;;;;;4940386;28;92509;-89
2021/10/27 05:47:58;;;;;;;20.60;10.07;;;15.50;82.00;;;;;;4924184;28;95455;-90
2021/10/27 05:50:43;;;;;;;19.83;11.32;;;15.40;82.20;;;;;;4924287;28;92410;-90
2021/10/27 05:55:56;;;;;;;16.67;11.32;;;15.50;82.30;;;;;;4925988;28;96077;-90
2021/10/27 05:58:23;;;;;;;21.05;12.00;;;15.40;82.30;;;;;;4924154;28;105643;-90
2021/10/27 06:00:52;;;;;;;20.30;12.38;;;15.50;82.20;;;;;;4923963;28;92260;-90
2021/10/27 06:03:19;;;;;;;16.92;11.60;;;15.50;82.40;;;;;;4957364;28;92981;-90
2021/10/27 06:05:46;;;;;;;19.88;12.43;;;15.50;82.40;;;;;;4922110;28;98385;-90
2021/10/27 06:08:15;;;;;;;16.30;11.55;;;15.50;82.40;;;;;;4939960;28;95818;-90
2021/10/27 06:10:42;;;;;;;18.80;12.77;;;15.50;82.50;;;;;;4923553;28;92541;-90
2021/10/27 06:13:12;;;;;;;19.88;13.05;;;15.50;82.40;;;;;;4957513;28;92570;-90
2021/10/27 06:15:40;;;;;;;17.92;12.25;;;15.50;82.50;;;;;;4924578;28;95784;-90
2021/10/27 06:18:08;;;;;;;21.70;13.32;;;15.50;82.40;;;;;;4939904;28;95926;-90
2021/10/27 06:20:35;;;;;;;20.48;13.75;;;15.50;82.40;;;;;;4955630;28;92551;-90
2021/10/27 06:23:02;;;;;;;17.70;13.23;;;15.50;82.30;;;;;;4956128;28;91747;-89
2021/10/27 06:25:31;;;;;;;22.13;12.82;;;15.50;82.20;;;;;;4939054;28;95927;-90
2021/10/27 06:28:08;;;;;;;23.48;14.57;;;15.50;82.20;;;;;;4940225;28;93461;-90
2021/10/27 06:30:49;;;;;;;23.65;13.55;;;15.50;82.70;;;;;;4938979;28;94834;-90
2021/10/27 06:35:52;;;;;;;21.75;12.55;;;15.50;82.10;;;;;;4956710;28;92482;-90
2021/10/27 06:38:31;;;;;;;18.08;12.15;;;15.50;82.10;;;;;;4938885;28;95877;-90
2021/10/27 06:46:38;;;;;;;20.33;12.82;;;15.50;81.90;;;;;;4942695;28;92487;-90
2021/10/27 06:49:06;;;;;;;17.33;12.02;;;15.50;82.00;;;;;;4940415;28;96103;-90
2021/10/27 06:51:34;;;;;;;21.15;12.38;;;15.60;81.90;;;;;;4956749;28;92367;-90
2021/10/27 06:54:01;;;;;;;17.67;12.18;;;15.60;81.80;;;;;;4923138;28;92482;-90
2021/10/27 06:56:29;;;;;;;20.52;12.82;;;15.60;81.90;;;;;;4953285;28;98480;-90
2021/10/27 07:01:40;;;;;;;16.67;11.17;;;15.60;81.90;;;;;;4956761;28;92268;-90
2021/10/27 07:06:48;;;;;;;19.75;11.85;;;15.60;82.00;;;;;;4956015;28;93381;-89
2021/10/27 07:17:26;;;;;;;18.85;12.70;;;15.50;82.60;;;;;;4956181;28;92869;-90
2021/10/27 07:19:54;;;;;;;19.95;13.32;;;15.50;82.50;;;;;;4954888;28;96107;-90
2021/10/27 07:22:21;;;;;;;21.00;14.93;;;15.50;82.40;;;;;;4954975;28;101640;-90
2021/10/27 07:24:48;;;;;;;18.85;14.38;;;15.60;82.20;;;;;;4938569;28;92473;-90
2021/10/27 07:27:15;;;;;;;19.75;14.55;;;15.60;82.10;;;;;;4971105;28;96274;-90
2021/10/27 07:29:43;;;;;;;20.10;14.43;;;15.60;82.00;;;;;;4922263;28;95716;-90
2021/10/27 07:32:13;;;;;;;19.55;15.02;;;15.60;82.00;;;;;;4922583;28;92291;-90
2021/10/27 07:34:50;;;;;;;20.02;16.02;;;15.60;82.00;;;;;;4923090;28;92962;-90
2021/10/27 07:40:32;;;;;;;19.13;14.82;;;15.60;81.80;;;;;;4925175;28;95764;-90
2021/10/27 07:43:00;;;;;;;17.88;14.82;;;15.60;81.90;;;;;;4942906;28;92531;-90
2021/10/27 07:45:30;;;;;;;22.65;16.27;;;15.70;81.70;;;;;;4942237;28;92477;-91
2021/10/27 07:47:59;;;;;;;21.38;14.75;;;15.70;81.70;;;;;;4940581;28;98427;-90
2021/10/27 07:50:27;;;;;;;18.58;14.85;;;15.70;81.50;;;;;;4925288;28;109760;-90
2021/10/27 07:52:59;;;;;;;25.65;16.70;;;15.80;81.50;;;;;;4941905;28;92239;-90
2021/10/27 07:55:28;;;;;;;20.77;16.33;;;15.80;81.50;;;;;;4941859;28;92774;-90
2021/10/27 07:57:58;;;;;;;17.40;15.10;;;15.90;81.30;;;;;;4942360;28;93210;-91
2021/10/27 08:00:29;;;;;;;20.73;15.63;;;15.90;81.10;;;;;;4941955;28;93183;-90
2021/10/27 08:03:02;;;;;;;20.60;16.45;;;15.90;81.10;;;;;;4942036;28;92847;-90
2021/10/27 08:05:32;;;;;;;19.80;15.73;;;15.90;81.00;;;;;;4926307;28;91980;-90
2021/10/27 08:07:59;;;;;;;19.55;16.75;;;16.00;80.90;;;;;;4926079;28;96897;-90
2021/10/27 08:10:27;;;;;;;18.52;14.73;;;16.00;80.90;;;;;;4942272;28;94454;-90
2021/10/27 08:12:54;;;;;;;17.38;14.43;;;16.00;80.90;;;;;;4958323;28;94766;-90
2021/10/27 08:15:21;;;;;;;18.05;15.55;;;16.00;80.80;;;;;;4958302;28;101497;-90
2021/10/27 08:17:49;;;;;;;18.40;15.48;;;16.00;80.80;;;;;;4933196;28;93615;-90
2021/10/27 08:20:19;;;;;;;17.13;15.00;;;16.00;80.70;;;;;;4939128;28;95666;-90
2021/10/27 08:22:53;;;;;;;21.05;14.93;;;16.10;80.50;;;;;;4956750;28;92515;-90
2021/10/27 08:25:36;;;;;;;21.70;16.02;;;16.10;80.40;;;;;;4924295;28;92382;-90
2021/10/27 08:28:08;;;;;;;19.92;15.50;;;16.10;80.00;;;;;;4955987;28;96676;-90
2021/10/27 08:30:41;;;;;;;17.13;14.48;;;16.20;79.80;;;;;;4941402;28;93076;-91
2021/10/27 08:33:18;;;;;;;17.58;13.05;;;16.20;79.80;;;;;;4956352;28;92422;-90
2021/10/27 08:35:47;;;;;;;16.98;15.18;;;16.10;79.60;;;;;;4958445;28;93289;-90
2021/10/27 08:38:14;;;;;;;17.77;14.50;;;16.10;79.70;;;;;;4955623;28;98746;-90
2021/10/27 08:40:45;;;;;;;17.15;14.75;;;16.10;79.80;;;;;;4957012;28;97913;-90
2021/10/27 08:43:13;;;;;;;17.48;14.65;;;16.10;79.70;;;;;;4940619;28;92529;-90
2021/10/27 08:45:41;;;;;;;17.77;13.68;;;16.10;79.70;;;;;;4957758;28;92354;-90
2021/10/27 08:48:13;;;;;;;19.75;14.48;;;16.20;79.70;;;;;;4956726;28;96279;-90
2021/10/27 08:50:41;;;;;;;16.55;13.80;;;16.20;79.50;;;;;;4958180;28;93159;-90
2021/10/27 08:53:14;;;;;;;18.15;14.27;;;16.20;79.30;;;;;;4924330;28;92451;-90
2021/10/27 08:55:46;;;;;;;19.75;14.68;;;16.20;79.20;;;;;;4934561;28;91795;-90
2021/10/27 08:58:17;;;;;;;18.05;13.38;;;16.30;79.00;;;;;;4905169;28;95745;-90
2021/10/27 09:03:49;;;;;;;20.38;13.55;;;16.40;79.00;;;;;;4937404;28;94793;-90
2021/10/27 09:33:33;;;;;;;16.23;14.32;;;16.30;79.70;;;;;;4936678;28;92475;-90
2021/10/27 10:05:15;;;;;;;12.25;8.25;;;16.40;78.80;;;;;;4919376;28;94957;-90
2021/10/27 10:07:43;;;;;;;9.30;8.40;;;16.40;78.70;;;;;;4938334;28;95487;-89
2021/10/27 10:10:11;;;;;;;10.65;9.15;;;16.40;78.50;;;;;;4938467;28;92415;-89
2021/10/27 10:12:48;;;;;;;15.45;8.38;;;16.50;78.20;;;;;;4936664;28;97522;-91
2021/10/27 10:15:20;;;;;;;12.45;8.60;;;16.60;78.00;;;;;;4936671;28;96084;-90
2021/10/27 10:17:50;;;;;;;15.15;8.60;;;16.70;77.90;;;;;;4936725;28;95885;-90
2021/10/27 10:20:19;;;;;;;9.40;7.88;;;16.80;77.50;;;;;;4937140;28;92730;-90
2021/10/27 10:23:24;;;;;;;11.00;7.85;;;16.80;77.20;;;;;;4923701;28;92450;-90
2021/10/27 10:25:56;;;;;;;10.60;7.43;;;17.00;76.50;;;;;;4954221;28;95792;-90
2021/10/27 10:28:26;;;;;;;8.45;7.05;;;17.00;76.50;;;;;;4971857;28;98106;-90
2021/10/27 10:30:57;;;;;;;13.82;7.53;;;17.10;76.30;;;;;;4955903;28;92422;-90
2021/10/27 10:33:42;;;;;;;9.75;6.43;;;17.10;76.00;;;;;;4939720;28;92464;-90
2021/10/27 10:36:25;;;;;;;11.30;6.53;;;17.20;75.50;;;;;;4939490;28;95737;-90
2021/10/27 11:37:42;;;;;;;8.27;4.53;;;18.30;69.60;;;;;;4945391;28;92400;-90
2021/10/27 11:40:32;;;;;;;10.38;4.55;;;18.40;69.40;;;;;;4960511;28;91557;-90
2021/10/27 11:45:53;;;;;;;7.77;4.90;;;18.40;69.20;;;;;;4941855;28;92920;-90
2021/10/27 11:49:14;;;;;;;7.13;3.67;;;18.30;69.00;;;;;;4938881;28;95318;-90
2021/10/27 11:51:15;;;;;;;9.47;4.43;;;18.30;68.50;;;;;;4944098;28;92823;-90
2021/10/27 11:53:45;;;;;;;8.43;4.13;;;18.30;69.80;;;;;;4941001;28;96244;-90
2021/10/27 11:56:21;;;;;;;10.80;4.88;;;18.30;69.00;;;;;;4940832;28;93497;-89
2021/10/27 11:58:51;;;;;;;6.45;3.97;;;18.50;68.80;;;;;;4973445;28;92547;-89
2021/10/27 12:01:32;;;;;;;7.43;4.40;;;18.50;68.50;;;;;;4959175;28;92354;-90
2021/10/27 12:04:02;;;;;;;5.68;3.53;;;18.60;68.40;;;;;;4941076;28;93247;-90
2021/10/27 12:07:14;;;;;;;7.25;4.25;;;18.60;68.20;;;;;;4941087;28;95680;-90
2021/10/27 12:12:10;;;;;;;7.97;4.07;;;18.50;67.90;;;;;;4958290;28;92574;-90
2021/10/27 12:15:29;;;;;;;7.75;4.40;;;18.60;68.00;;;;;;4955057;28;95812;-90
2021/10/27 12:18:00;;;;;;;8.80;4.95;;;18.60;67.70;;;;;;4957037;28;95376;-90
2021/10/27 12:20:33;;;;;;;8.20;4.60;;;18.50;67.60;;;;;;4941234;28;92443;-90
2021/10/27 12:23:00;;;;;;;8.80;4.70;;;18.60;67.80;;;;;;4942556;28;92368;-90
2021/10/27 12:25:28;;;;;;;8.13;4.38;;;18.60;68.00;;;;;;4941819;28;92609;-90
2021/10/27 12:28:01;;;;;;;6.97;4.80;;;18.70;68.10;;;;;;4940367;28;95216;-90
2021/10/27 12:30:37;;;;;;;7.55;5.15;;;18.70;67.80;;;;;;4926547;28;92465;-90
2021/10/27 12:33:05;;;;;;;10.68;4.97;;;18.80;67.60;;;;;;4942469;28;91716;-90
2021/10/27 12:35:32;;;;;;;6.85;4.85;;;18.70;67.70;;;;;;4925120;28;95724;-90
2021/10/27 12:38:11;;;;;;;7.20;4.63;;;18.80;67.90;;;;;;4941039;28;95569;-90
2021/10/27 12:40:43;;;;;;;10.40;5.13;;;18.90;67.20;;;;;;4939913;28;94941;-90
2021/10/27 12:43:13;;;;;;;;;;;18.80;67.00;;;;;;4942172;28;92455;-90
2021/10/27 12:45:48;;;;;;;10.05;5.30;;;18.80;66.80;;;;;;4958110;28;96300;-90
2021/10/27 12:48:19;;;;;;;6.47;4.15;;;18.80;67.10;;;;;;4956796;28;94521;-90
2021/10/27 12:50:58;;;;;;;5.43;4.25;;;18.90;66.80;;;;;;4957197;28;92422;-90
2021/10/27 12:53:47;;;;;;;5.53;4.38;;;18.90;66.60;;;;;;4958621;28;92401;-90
2021/10/27 12:56:17;;;;;;;7.15;4.20;;;19.00;66.20;;;;;;4956897;28;93206;-90
2021/10/27 12:58:50;;;;;;;6.82;4.40;;;18.90;66.60;;;;;;4957541;28;98940;-89
2021/10/27 13:01:37;;;;;;;7.47;4.50;;;18.90;66.40;;;;;;4940413;28;92470;-90
2021/10/27 13:09:39;;;;;;;5.72;4.43;;;18.80;66.60;;;;;;4924260;28;98058;-90
2021/10/27 13:12:22;;;;;;;7.50;4.38;;;18.80;66.60;;;;;;4940473;28;92440;-90
2021/10/27 13:31:08;;;;;;;7.90;5.15;;;18.60;66.70;;;;;;4925581;28;95478;-90
2021/10/27 13:33:36;;;;;;;7.15;4.90;;;18.60;66.80;;;;;;4907223;28;94895;-90
2021/10/27 13:36:04;;;;;;;7.30;5.47;;;18.60;66.80;;;;;;4940248;28;92918;-90
2021/10/27 13:38:34;;;;;;;6.47;4.43;;;18.60;66.80;;;;;;4923598;28;94474;-90
2021/10/27 13:41:02;;;;;;;9.48;4.43;;;18.60;66.70;;;;;;4940327;28;92980;-90
2021/10/27 13:43:53;;;;;;;8.25;4.95;;;18.60;66.90;;;;;;4922882;28;108026;-90
2021/10/27 13:49:51;;;;;;;5.13;4.40;;;18.40;67.00;;;;;;4940074;28;92977;-90
2021/10/27 14:06:11;;;;;;;5.97;3.58;;;18.10;67.10;;;;;;4954420;28;92568;-90
2021/10/27 14:08:47;;;;;;;6.85;3.80;;;18.00;67.40;;;;;;4924681;28;92483;-90
2021/10/27 15:22:00;;;;;;;4.55;2.60;;;17.20;68.30;;;;;;4947875;28;94935;-90
2021/10/27 15:32:51;;;;;;;5.40;2.85;;;17.20;68.70;;;;;;4940919;28;92498;-91
2021/10/27 15:35:35;;;;;;;7.60;3.50;;;17.10;68.90;;;;;;4943092;28;92474;-91
2021/10/27 15:51:20;;;;;;;5.15;2.88;;;17.00;69.30;;;;;;4958555;28;98230;-92
2021/10/27 15:53:47;;;;;;;4.40;2.80;;;17.00;69.60;;;;;;4958427;28;92318;-92
2021/10/27 15:56:14;;;;;;;3.00;2.70;;;16.90;69.70;;;;;;4941892;28;92503;-92
2021/10/27 15:58:41;;;;;;;5.30;3.00;;;16.90;69.80;;;;;;4926151;28;95794;-92
2021/10/27 16:01:08;;;;;;;5.50;2.95;;;16.90;70.00;;;;;;4910760;28;95504;-92
2021/10/27 16:03:36;;;;;;;5.15;3.15;;;16.90;70.10;;;;;;4925581;28;92204;-92
2021/10/27 16:06:04;;;;;;;5.22;3.10;;;16.90;70.10;;;;;;4942783;28;91746;-92
2021/10/27 16:08:33;;;;;;;5.32;3.40;;;16.90;70.30;;;;;;4958237;28;95762;-92
2021/10/27 16:11:00;;;;;;;6.85;4.10;;;16.80;70.40;;;;;;4957996;28;107063;-92
2021/10/27 16:13:27;;;;;;;3.47;3.17;;;16.80;70.60;;;;;;4941173;28;94745;-92
2021/10/27 16:15:58;;;;;;;5.63;3.30;;;16.70;70.60;;;;;;4974274;28;92583;-92
2021/10/27 16:18:30;;;;;;;5.13;3.13;;;16.70;70.70;;;;;;4941872;28;95999;-92
2021/10/27 16:20:59;;;;;;;4.32;3.33;;;16.70;70.80;;;;;;4926038;28;95304;-92
2021/10/27 16:23:26;;;;;;;5.88;3.53;;;16.60;70.90;;;;;;4925494;28;92405;-92
2021/10/27 16:25:55;;;;;;;6.63;3.40;;;16.60;71.10;;;;;;4941842;28;92455;-92
2021/10/27 16:28:23;;;;;;;5.30;3.55;;;16.60;71.10;;;;;;4957894;28;95802;-92
2021/10/27 16:30:52;;;;;;;9.30;3.72;;;16.60;71.20;;;;;;4942197;28;95906;-91
2021/10/27 16:33:21;;;;;;;5.72;3.85;;;16.60;71.30;;;;;;4958309;28;92350;-92
2021/10/27 16:35:50;;;;;;;7.35;3.80;;;16.60;71.40;;;;;;4941992;28;92500;-91
2021/10/27 16:38:18;;;;;;;9.00;4.15;;;16.50;71.60;;;;;;4972758;28;98087;-92
2021/10/27 16:40:46;;;;;;;4.82;3.80;;;16.50;71.80;;;;;;4941359;28;100192;-92
2021/10/27 16:43:14;;;;;;;6.15;3.53;;;16.50;71.80;;;;;;4957261;28;92505;-92
2021/10/27 16:45:41;;;;;;;5.82;3.83;;;16.50;71.80;;;;;;4941370;28;92393;-91
2021/10/27 16:48:09;;;;;;;6.57;4.47;;;16.50;71.90;;;;;;4925878;28;95729;-92
2021/10/27 16:50:36;;;;;;;5.00;3.65;;;16.50;71.80;;;;;;4941328;28;95967;-91
2021/10/27 16:53:03;;;;;;;6.35;3.78;;;16.50;71.80;;;;;;4968561;28;92418;-91
2021/10/27 16:55:34;;;;;;;6.78;4.80;;;16.50;71.80;;;;;;4942757;28;91596;-92
2021/10/27 16:58:03;;;;;;;4.68;4.00;;;16.50;71.90;;;;;;4941179;28;96188;-92
2021/10/27 17:00:31;;;;;;;6.13;4.30;;;16.40;71.90;;;;;;4941639;28;95502;-91
2021/10/27 17:02:58;;;;;;;5.70;4.00;;;16.40;72.10;;;;;;4923664;28;94799;-91
2021/10/27 17:05:26;;;;;;;9.38;5.10;;;16.40;72.30;;;;;;4941109;28;92477;-91
2021/10/27 17:07:54;;;;;;;5.45;4.75;;;16.30;72.40;;;;;;4924614;28;96030;-91
2021/10/27 17:10:22;;;;;;;9.30;4.80;;;16.30;72.90;;;;;;4925588;28;95446;-92
2021/10/27 17:12:49;;;;;;;6.65;5.07;;;16.20;73.20;;;;;;4909362;28;92771;-91
2021/10/27 17:15:17;;;;;;;7.75;5.00;;;16.30;73.40;;;;;;4956991;28;92526;-92
2021/10/27 17:17:45;;;;;;;7.45;5.68;;;16.30;73.40;;;;;;4941062;28;96185;-91
2021/10/27 17:20:14;;;;;;;10.75;7.70;;;16.30;73.50;;;;;;4941341;28;95471;-92
2021/10/27 17:22:44;;;;;;;9.57;8.65;;;16.20;73.60;;;;;;4957473;28;92358;-92
2021/10/27 17:25:14;;;;;;;11.15;10.07;;;16.20;73.70;;;;;;4941575;28;92678;-92
2021/10/27 17:27:43;;;;;;;12.93;10.50;;;16.20;73.60;;;;;;4956690;28;95705;-92
2021/10/27 17:30:13;;;;;;;12.57;11.30;;;16.10;73.30;;;;;;4925162;28;98255;-92